createdAt,value
2022-08-17T00:02:26.941Z,100.00
2022-08-17T00:05:33.781Z,100.00
2022-08-17T00:08:39.920Z,100.00
2022-08-17T00:12:40.576Z,100.00
2022-08-17T00:15:13.348Z,100.00
2022-08-17T00:19:00.352Z,100.00
2022-08-17T00:22:28.615Z,100.00
2022-08-17T00:25:13.184Z,100.00
2022-08-17T00:28:17.292Z,100.00
2022-08-17T00:31:22.757Z,100.00
2022-08-17T00:34:27.930Z,100.00
2022-08-17T00:37:31.006Z,100.00
2022-08-17T00:40:40.684Z,100.00
2022-08-17T00:43:50.803Z,100.00
2022-08-17T00:46:55.581Z,100.00
2022-08-17T00:49:58.552Z,100.00
2022-08-17T00:53:01.571Z,100.00
2022-08-17T00:56:09.434Z,100.00
2022-08-17T00:59:18.784Z,100.00
2022-08-17T01:02:24.347Z,100.00
2022-08-17T01:05:31.329Z,100.00
2022-08-17T01:08:36.892Z,100.00
2022-08-17T01:11:40.581Z,100.00
2022-08-17T01:14:44.002Z,100.00
2022-08-17T01:17:48.854Z,100.00
2022-08-17T01:20:54.973Z,100.00
2022-08-17T01:23:59.398Z,100.00
2022-08-17T01:27:03.521Z,100.00
2022-08-17T01:30:54.170Z,100.00
2022-08-17T01:33:39.118Z,100.00
2022-08-17T01:36:45.833Z,100.00
2022-08-17T01:39:54.869Z,100.00
2022-08-17T01:43:01.594Z,100.00
2022-08-17T01:46:04.981Z,100.00
2022-08-17T01:49:11.522Z,100.00
2022-08-17T01:52:14.796Z,100.00
2022-08-17T01:55:27.430Z,100.00
2022-08-17T01:58:30.917Z,100.00
2022-08-17T02:01:36.992Z,100.00
2022-08-17T02:04:39.995Z,100.00
2022-08-17T02:07:55.989Z,100.00
2022-08-17T02:11:11.382Z,100.00
2022-08-17T02:14:15.382Z,100.00
2022-08-17T02:17:18.870Z,100.00
2022-08-17T02:20:41.180Z,100.00
2022-08-17T02:23:48.616Z,100.00
2022-08-17T02:26:52.960Z,100.00
2022-08-17T02:29:56.392Z,100.00
2022-08-17T02:32:59.354Z,100.00
2022-08-17T02:36:09.881Z,100.00
2022-08-17T02:39:14.037Z,100.00
2022-08-17T02:42:18.470Z,100.00
2022-08-17T02:45:24.504Z,100.00
2022-08-17T02:48:29.698Z,100.00
2022-08-17T02:51:35.277Z,100.00
2022-08-17T02:54:40.104Z,100.00
2022-08-17T02:57:46.643Z,100.00
2022-08-17T03:00:50.083Z,100.00
2022-08-17T03:03:53.082Z,100.00
2022-08-17T03:06:56.211Z,100.00
2022-08-17T03:10:00.059Z,100.00
2022-08-17T03:13:04.842Z,100.00
2022-08-17T03:16:09.107Z,100.00
2022-08-17T03:19:12.531Z,100.00
2022-08-17T03:22:37.337Z,100.00
2022-08-17T03:25:42.763Z,100.00
2022-08-17T03:28:48.415Z,100.00
2022-08-17T03:31:52.317Z,100.00
2022-08-17T03:35:00.468Z,100.00
2022-08-17T03:38:05.689Z,100.00
2022-08-17T03:41:08.933Z,100.00
2022-08-17T03:44:13.206Z,100.00
2022-08-17T03:47:33.687Z,100.00
2022-08-17T03:50:54.151Z,100.00
2022-08-17T03:54:17.331Z,100.00
2022-08-17T03:57:20.589Z,100.00
2022-08-17T04:00:25.306Z,100.00
2022-08-17T04:03:28.631Z,100.00
2022-08-17T04:06:31.647Z,100.00
2022-08-17T04:09:34.917Z,100.00
2022-08-17T04:12:48.460Z,100.00
2022-08-17T04:15:53.599Z,100.00
2022-08-17T04:18:56.617Z,100.00
2022-08-17T04:21:59.607Z,100.00
2022-08-17T04:25:07.599Z,100.00
2022-08-17T04:28:16.029Z,100.00
2022-08-17T04:31:20.777Z,100.00
2022-08-17T04:34:25.071Z,100.00
2022-08-17T04:37:28.051Z,100.00
2022-08-17T04:40:48.825Z,100.00
2022-08-17T04:43:56.002Z,100.00
2022-08-17T04:47:01.327Z,100.00
2022-08-17T04:50:04.708Z,100.00
2022-08-17T04:53:07.768Z,100.00
2022-08-17T04:56:15.991Z,100.00
2022-08-17T04:59:22.765Z,100.00
2022-08-17T05:02:27.092Z,100.00
2022-08-17T05:05:36.263Z,100.00
2022-08-17T05:08:39.739Z,100.00
2022-08-17T05:11:45.053Z,100.00
2022-08-17T05:14:48.131Z,100.00
2022-08-17T05:17:52.451Z,100.00
2022-08-17T05:20:55.792Z,100.00
2022-08-17T05:23:58.987Z,100.00
2022-08-17T05:27:06.652Z,100.00
2022-08-17T05:30:10.895Z,100.00
2022-08-17T05:33:17.963Z,100.00
2022-08-17T05:36:43.191Z,100.00
2022-08-17T05:39:44.278Z,100.00
2022-08-17T05:42:47.386Z,100.00
2022-08-17T05:46:00.072Z,100.00
2022-08-17T05:49:09.060Z,100.00
2022-08-17T05:52:33.228Z,100.00
2022-08-17T05:55:46.915Z,100.00
2022-08-17T05:59:02.143Z,100.00
2022-08-17T06:02:15.637Z,100.00
2022-08-17T06:05:38.031Z,100.00
2022-08-17T06:08:48.989Z,100.00
2022-08-17T06:12:01.059Z,100.00
2022-08-17T06:15:24.814Z,100.00
2022-08-17T06:18:36.479Z,100.00
2022-08-17T06:21:45.081Z,100.00
2022-08-17T06:24:56.691Z,100.00
2022-08-17T06:28:05.853Z,100.00
2022-08-17T06:31:17.424Z,100.00
2022-08-17T06:34:20.850Z,100.00
2022-08-17T06:37:59.316Z,100.00
2022-08-17T06:41:15.452Z,100.00
2022-08-17T06:44:43.356Z,100.00
2022-08-17T06:47:53.572Z,100.00
2022-08-17T06:51:02.359Z,100.00
2022-08-17T06:54:13.809Z,100.00
2022-08-17T06:57:25.117Z,100.00
2022-08-17T07:00:34.460Z,100.00
2022-08-17T07:03:45.208Z,100.00
2022-08-17T07:06:53.725Z,100.00
2022-08-17T07:10:01.041Z,100.00
2022-08-17T07:13:21.470Z,100.00
2022-08-17T07:16:31.465Z,100.00
2022-08-17T07:19:38.125Z,100.00
2022-08-17T07:22:59.853Z,100.00
2022-08-17T07:26:07.328Z,100.00
2022-08-17T07:29:14.980Z,100.00
2022-08-17T07:32:22.783Z,100.00
2022-08-17T07:35:40.820Z,100.00
2022-08-17T07:38:57.501Z,100.00
2022-08-17T07:42:05.979Z,100.00
2022-08-17T07:45:26.886Z,100.00
2022-08-17T07:48:29.923Z,100.00
2022-08-17T07:51:38.044Z,100.00
2022-08-17T07:54:43.734Z,100.00
2022-08-17T07:57:57.833Z,100.00
2022-08-17T08:01:07.957Z,100.00
2022-08-17T08:04:59.074Z,100.00
2022-08-17T08:07:55.403Z,100.00
2022-08-17T08:11:07.663Z,100.00
2022-08-17T08:14:28.667Z,100.00
2022-08-17T08:17:36.688Z,100.00
2022-08-17T08:20:52.037Z,100.00
2022-08-17T08:24:04.250Z,100.00
2022-08-17T08:27:19.497Z,100.00
2022-08-17T08:30:24.119Z,100.00
2022-08-17T08:33:44.937Z,98.95
2022-08-17T08:37:16.530Z,96.63
2022-08-17T08:40:44.197Z,77.42
2022-08-17T08:44:00.780Z,85.75
2022-08-17T08:47:18.159Z,83.74
2022-08-17T08:50:38.208Z,85.15
2022-08-17T08:53:51.950Z,76.98
2022-08-17T08:57:24.329Z,81.70
2022-08-17T09:00:35.725Z,69.65
2022-08-17T09:04:19.903Z,78.63
2022-08-17T09:07:39.759Z,72.71
2022-08-17T09:10:56.864Z,81.13
2022-08-17T09:14:21.495Z,65.76
2022-08-17T09:17:36.507Z,66.37
2022-08-17T09:20:50.191Z,61.22
2022-08-17T09:24:04.819Z,63.24
2022-08-17T09:27:13.347Z,56.63
2022-08-17T09:30:16.780Z,55.50
2022-08-17T09:33:26.261Z,60.22
2022-08-17T09:36:34.530Z,56.40
2022-08-17T09:39:44.337Z,47.10
2022-08-17T09:42:51.588Z,66.34
2022-08-17T09:46:00.187Z,47.09
2022-08-17T09:49:09.660Z,46.63
2022-08-17T09:52:21.754Z,45.45
2022-08-17T09:55:33.750Z,48.31
2022-08-17T09:59:04.413Z,45.09
2022-08-17T10:02:36.202Z,49.17
2022-08-17T10:05:48.006Z,44.68
2022-08-17T10:09:06.507Z,44.60
2022-08-17T10:12:29.853Z,47.23
2022-08-17T10:15:48.205Z,43.62
2022-08-17T10:19:14.580Z,41.57
2022-08-17T10:22:44.622Z,42.26
2022-08-17T10:26:13.027Z,41.87
2022-08-17T10:29:22.955Z,40.83
2022-08-17T10:32:33.722Z,38.40
2022-08-17T10:35:46.438Z,41.37
2022-08-17T10:39:00.410Z,39.62
2022-08-17T10:42:30.406Z,40.70
2022-08-17T10:45:48.302Z,44.86
2022-08-17T10:49:34.059Z,42.13
2022-08-17T10:52:49.917Z,41.20
2022-08-17T10:56:23.143Z,39.34
2022-08-17T10:59:53.963Z,39.22
2022-08-17T11:02:58.115Z,40.90
2022-08-17T11:06:14.309Z,38.02
2022-08-17T11:09:35.444Z,39.03
2022-08-17T11:12:48.960Z,37.16
2022-08-17T11:16:08.792Z,39.32
2022-08-17T11:19:38.246Z,41.89
2022-08-17T11:23:14.726Z,37.33
2022-08-17T11:26:26.839Z,37.75
2022-08-17T11:29:37.354Z,37.48
2022-08-17T11:32:47.773Z,41.30
2022-08-17T11:35:56.661Z,38.13
2022-08-17T11:39:06.862Z,39.28
2022-08-17T11:42:32.523Z,39.92
2022-08-17T11:45:56.001Z,39.93
2022-08-17T11:49:28.619Z,38.37
2022-08-17T11:52:42.014Z,36.78
2022-08-17T11:56:09.535Z,36.58
2022-08-17T12:00:10.602Z,37.55
2022-08-17T12:03:26.388Z,38.46
2022-08-17T12:06:45.388Z,38.11
2022-08-17T12:09:51.814Z,38.11
2022-08-17T12:12:55.625Z,38.48
2022-08-17T12:15:59.982Z,42.75
2022-08-17T12:19:05.207Z,38.96
2022-08-17T12:22:18.850Z,40.82
2022-08-17T12:25:32.791Z,37.76
2022-08-17T12:28:39.592Z,37.87
2022-08-17T12:31:47.137Z,41.65
2022-08-17T12:34:51.903Z,36.83
2022-08-17T12:37:58.091Z,38.74
2022-08-17T12:41:24.284Z,38.25
2022-08-17T12:44:30.519Z,43.54
2022-08-17T12:47:38.360Z,53.76
2022-08-17T12:50:44.592Z,44.55
2022-08-17T12:53:55.871Z,42.23
2022-08-17T12:57:03.006Z,37.25
2022-08-17T13:00:16.227Z,40.23
2022-08-17T13:03:23.525Z,36.04
2022-08-17T13:06:33.059Z,37.87
2022-08-17T13:09:40.756Z,39.77
2022-08-17T13:12:44.001Z,39.08
2022-08-17T13:15:55.160Z,37.15
2022-08-17T13:19:10.955Z,35.95
2022-08-17T13:22:13.895Z,33.69
2022-08-17T13:25:18.496Z,34.02
2022-08-17T13:28:30.717Z,33.78
2022-08-17T13:31:52.782Z,34.66
2022-08-17T13:35:14.281Z,33.13
2022-08-17T13:38:45.807Z,35.81
2022-08-17T13:41:52.451Z,35.56
2022-08-17T13:44:55.394Z,33.44
2022-08-17T13:48:08.370Z,33.71
2022-08-17T13:51:24.157Z,34.86
2022-08-17T13:54:31.035Z,33.56
2022-08-17T13:57:38.422Z,33.34
2022-08-17T14:00:41.588Z,32.90
2022-08-17T14:03:44.553Z,33.16
2022-08-17T14:06:55.187Z,38.34
2022-08-17T14:10:02.037Z,34.12
2022-08-17T14:13:08.064Z,35.50
2022-08-17T14:16:10.991Z,36.63
2022-08-17T14:19:15.323Z,34.06
2022-08-17T14:22:23.574Z,33.22
2022-08-17T14:25:29.907Z,34.46
2022-08-17T14:28:36.345Z,36.36
2022-08-17T14:31:39.746Z,39.59
2022-08-17T14:34:42.831Z,45.98
2022-08-17T14:37:47.994Z,43.39
2022-08-17T14:40:51.204Z,35.43
2022-08-17T14:43:55.475Z,42.48
2022-08-17T14:46:58.416Z,37.99
2022-08-17T14:50:02.127Z,39.32
2022-08-17T14:53:06.313Z,39.19
2022-08-17T14:56:09.269Z,35.85
2022-08-17T14:59:13.636Z,40.87
2022-08-17T15:02:16.942Z,42.27
2022-08-17T15:05:22.018Z,42.36
2022-08-17T15:08:25.081Z,53.04
2022-08-17T15:11:28.051Z,55.20
2022-08-17T15:14:33.359Z,60.60
2022-08-17T15:17:44.757Z,61.39
2022-08-17T15:20:50.453Z,68.16
2022-08-17T15:23:53.412Z,77.99
2022-08-17T15:26:56.388Z,74.19
2022-08-17T15:30:00.671Z,80.53
2022-08-17T15:33:04.341Z,74.26
2022-08-17T15:36:09.279Z,71.08
2022-08-17T15:39:12.241Z,79.80
2022-08-17T15:42:16.116Z,84.84
2022-08-17T15:45:26.480Z,81.27
2022-08-17T15:48:41.934Z,71.08
2022-08-17T15:51:45.241Z,82.37
2022-08-17T15:54:53.070Z,59.24
2022-08-17T15:57:56.240Z,51.11
2022-08-17T16:01:14.370Z,57.24
2022-08-17T16:04:29.791Z,57.18
2022-08-17T16:07:34.335Z,61.25
2022-08-17T16:10:37.468Z,57.81
2022-08-17T16:13:41.547Z,59.15
2022-08-17T16:16:45.858Z,50.41
2022-08-17T16:19:48.987Z,64.00
2022-08-17T16:22:52.088Z,63.17
2022-08-17T16:25:55.254Z,49.16
2022-08-17T16:29:00.917Z,59.97
2022-08-17T16:32:12.804Z,49.63
2022-08-17T16:35:18.116Z,44.99
2022-08-17T16:38:22.198Z,47.73
2022-08-17T16:41:42.635Z,45.60
2022-08-17T16:44:45.566Z,43.42
2022-08-17T16:47:50.313Z,46.69
2022-08-17T16:51:03.238Z,49.75
2022-08-17T16:54:08.625Z,47.65
2022-08-17T16:57:12.376Z,48.73
2022-08-17T17:00:19.167Z,56.85
2022-08-17T17:03:27.172Z,58.94
2022-08-17T17:06:40.798Z,73.45
2022-08-17T17:09:48.533Z,78.89
2022-08-17T17:13:02.594Z,72.68
2022-08-17T17:16:20.788Z,92.49
2022-08-17T17:19:35.140Z,79.35
2022-08-17T17:22:48.019Z,84.62
2022-08-17T17:26:03.115Z,92.82
2022-08-17T17:29:35.801Z,90.20
2022-08-17T17:32:55.763Z,91.12
2022-08-17T17:36:03.053Z,90.10
2022-08-17T17:39:11.476Z,93.74
2022-08-17T17:42:20.473Z,89.13
2022-08-17T17:45:26.639Z,92.15
2022-08-17T17:48:30.855Z,91.73
2022-08-17T17:52:06.315Z,99.60
2022-08-17T17:55:24.944Z,98.46
2022-08-17T17:58:40.223Z,98.06
2022-08-17T18:02:32.229Z,100.00
2022-08-17T18:06:38.317Z,93.34
2022-08-17T18:10:43.447Z,98.54
2022-08-17T18:14:43.082Z,100.00
2022-08-17T18:19:00.870Z,100.00
2022-08-17T18:22:16.181Z,90.45
2022-08-17T18:25:44.706Z,86.56
2022-08-17T18:28:52.897Z,90.04
2022-08-17T18:32:31.188Z,81.05
2022-08-17T18:35:35.172Z,86.06
2022-08-17T18:38:41.928Z,80.80
2022-08-17T18:41:48.872Z,83.07
2022-08-17T18:44:55.100Z,79.51
2022-08-17T18:47:58.637Z,78.53
2022-08-17T18:51:08.631Z,83.14
2022-08-17T18:54:22.666Z,94.37
2022-08-17T18:57:32.736Z,87.84
2022-08-17T19:00:40.428Z,87.49
2022-08-17T19:03:46.452Z,82.97
2022-08-17T19:07:27.432Z,83.14
2022-08-17T19:10:47.037Z,87.95
2022-08-17T19:13:58.274Z,87.94
2022-08-17T19:17:06.534Z,94.34
2022-08-17T19:20:17.763Z,87.08
2022-08-17T19:23:26.694Z,86.66
2022-08-17T19:26:54.478Z,87.08
2022-08-17T19:30:07.841Z,95.25
2022-08-17T19:33:11.505Z,91.18
2022-08-17T19:36:35.362Z,91.45
2022-08-17T19:39:51.657Z,82.67
2022-08-17T19:43:07.509Z,85.50
2022-08-17T19:46:26.106Z,86.18
2022-08-17T19:49:41.595Z,86.52
2022-08-17T19:52:52.927Z,86.86
2022-08-17T19:56:04.249Z,84.88
2022-08-17T19:59:17.348Z,85.57
2022-08-17T20:02:49.045Z,86.91
2022-08-17T20:06:13.794Z,85.87
2022-08-17T20:09:26.164Z,92.18
2022-08-17T20:12:39.450Z,90.95
2022-08-17T20:15:43.800Z,88.54
2022-08-17T20:18:59.747Z,86.65
2022-08-17T20:22:11.014Z,87.61
2022-08-17T20:25:30.403Z,89.28
2022-08-17T20:28:36.235Z,84.53
2022-08-17T20:31:47.075Z,85.22
2022-08-17T20:35:21.251Z,91.68
2022-08-17T20:38:42.867Z,88.05
2022-08-17T20:42:09.911Z,88.06
2022-08-17T20:46:21.162Z,85.57
2022-08-17T20:49:30.396Z,83.48
2022-08-17T20:52:53.074Z,83.88
2022-08-17T20:55:57.082Z,82.88
2022-08-17T20:59:00.953Z,85.98
2022-08-17T21:02:18.109Z,87.73
2022-08-17T21:05:59.705Z,91.06
2022-08-17T21:09:30.030Z,92.75
2022-08-17T21:12:44.614Z,91.31
2022-08-17T21:15:52.978Z,93.20
2022-08-17T21:19:17.022Z,90.91
2022-08-17T21:22:35.286Z,91.35
2022-08-17T21:26:02.383Z,94.97
2022-08-17T21:29:29.702Z,87.82
2022-08-17T21:32:40.419Z,85.81
2022-08-17T21:35:52.914Z,85.43
2022-08-17T21:39:08.794Z,86.02
2022-08-17T21:42:13.973Z,87.40
2022-08-17T21:45:26.182Z,90.11
2022-08-17T21:48:32.323Z,89.75
2022-08-17T21:51:38.942Z,90.64
2022-08-17T21:54:49.954Z,93.06
2022-08-17T21:58:14.958Z,94.10
2022-08-17T22:01:24.750Z,97.04
2022-08-17T22:04:31.555Z,99.55
2022-08-17T22:07:39.416Z,98.50
2022-08-17T22:10:45.813Z,98.52
2022-08-17T22:13:50.091Z,100.00
2022-08-17T22:17:17.209Z,100.00
2022-08-17T22:20:21.947Z,100.00
2022-08-17T22:23:47.816Z,100.00
2022-08-17T22:27:06.855Z,100.00
2022-08-17T22:30:27.417Z,100.00
2022-08-17T22:33:39.634Z,100.00
2022-08-17T22:36:43.506Z,100.00
2022-08-17T22:39:46.544Z,100.00
2022-08-17T22:42:49.713Z,100.00
2022-08-17T22:45:59.439Z,100.00
2022-08-17T22:49:02.478Z,100.00
2022-08-17T22:52:21.987Z,100.00
2022-08-17T22:55:58.937Z,100.00
2022-08-17T22:59:20.050Z,100.00
2022-08-17T23:02:27.693Z,100.00
2022-08-17T23:05:31.336Z,100.00
2022-08-17T23:08:36.766Z,100.00
2022-08-17T23:11:49.219Z,100.00
2022-08-17T23:15:00.595Z,100.00
2022-08-17T23:18:05.563Z,100.00
2022-08-17T23:21:08.612Z,100.00
2022-08-17T23:24:22.811Z,100.00
2022-08-17T23:27:26.417Z,100.00
2022-08-17T23:30:30.270Z,100.00
2022-08-17T23:33:35.488Z,100.00
2022-08-17T23:36:38.967Z,100.00
2022-08-17T23:39:42.375Z,100.00
2022-08-17T23:42:46.467Z,100.00
2022-08-17T23:45:50.326Z,100.00
2022-08-17T23:48:54.915Z,100.00
2022-08-17T23:51:59.391Z,100.00
2022-08-17T23:55:02.363Z,100.00
2022-08-17T23:58:06.067Z,100.00
